Manuela E — EAVH — position and weather

sailwx.info

Track history (hours):
 
Tides and Currents Weather Stations Pressure Air Temp Water Temp Dewpoint Dewpoint Depression Visibility Wind Speed Wind Dir Waves Ship Positions

Manuela E

Last reported at 2017-Oct-13 21:02 UTC. Time now 2017-Nov-18 06:48 UTC.
Position N 40°09' W 008°51'.
Warning: this ship's position is 35 days out of date.

Length 100 m; draft 6.2 m.

Type: Cargo ship. MMSI: 225365000.

Date/timePositionNaut miles runAvg speedWind from/ knotsBaromVisibWave heightAir tempDewpointWater temp
2017-Oct-13 21:02N 40°09' W 008°51'0 0.0
2017-Oct-13 20:38N 40°09' W 008°51'5 0.2
2017-Oct-12 18:22N 40°06' W 008°56'410.9
2017-Oct-12 18:00N 40°03' W 008°60'611.1
2017-Oct-12 17:26N 39°59' W 009°06'3111.2
2017-Oct-12 14:42N 39°37' W 009°34'312.0
2017-Oct-12 14:29N 39°35' W 009°36'511.5
2017-Oct-12 14:00N 39°31' W 009°41'610.6
2017-Oct-12 13:27N 39°26' W 009°44'510.9
2017-Oct-12 13:00N 39°21' W 009°45'510.5
2017-Oct-12 12:30N 39°16' W 009°46'510.7
2017-Oct-12 12:00N 39°11' W 009°47'510.8
2017-Oct-12 11:30N 39°05' W 009°48'510.6
2017-Oct-12 11:00N 38°60' W 009°49'611.1
2017-Oct-12 10:30N 38°54' W 009°50'510.8
2017-Oct-12 10:00N 38°49' W 009°50'611.0
2017-Oct-12 09:30N 38°44' W 009°50'611.3
2017-Oct-12 09:00N 38°38' W 009°50'511.0
2017-Oct-12 08:31N 38°32' W 009°49'610.9
2017-Oct-12 08:00N 38°27' W 009°49'710.9
2017-Oct-12 07:22N 38°20' W 009°49'410.9
2017-Oct-12 06:59N 38°16' W 009°49'511.2
2017-Oct-12 06:31N 38°11' W 009°49'611.4
2017-Oct-12 06:00N 38°05' W 009°49'511.2
2017-Oct-12 05:30N 37°59' W 009°49'811.4
2017-Oct-12 04:48N 37°51' W 009°48'311.2
2017-Oct-12 04:30N 37°48' W 009°48'611.5
2017-Oct-12 04:01N 37°42' W 009°48'611.6
2017-Oct-12 03:30N 37°36' W 009°48'611.8
2017-Oct-12 03:00N 37°30' W 009°48'3811.3
2017-Oct-11 23:37N 36°52' W 009°47'310.9
2017-Oct-11 23:21N 36°49' W 009°47'411.1
2017-Oct-11 23:00N 36°45' W 009°47'510.9
2017-Oct-11 22:30N 36°40' W 009°47'710.9
2017-Oct-11 21:54N 36°33' W 009°46'511.1
2017-Oct-11 21:29N 36°28' W 009°46'4111.1
2017-Oct-11 17:46N 35°47' W 009°42'1010.5
2017-Oct-11 16:51N 35°38' W 009°41'  
2017-Oct-08 01:43N 33°36' W 007°37'0 0.0
2017-Oct-06 18:22N 33°36' W 007°37'10 0.7
2017-Oct-06 04:37N 33°46' W 007°36'1 8.5
2017-Oct-06 04:29N 33°47' W 007°37'4 9.1
2017-Oct-06 04:00N 33°50' W 007°40'141 9.3
2017-Oct-05 12:48N 35°52' W 009°07'5 8.6
2017-Oct-05 12:15N 35°56' W 009°10'2 8.6
2017-Oct-05 11:58N 35°58' W 009°12'37 9.2
2017-Oct-05 07:58N 36°30' W 009°35'5 9.5
2017-Oct-05 07:24N 36°34' W 009°39'4 9.3
2017-Oct-05 07:00N 36°37' W 009°41'19 9.0
2017-Oct-05 04:54N 36°56' W 009°45'6 9.4
2017-Oct-05 04:17N 37°02' W 009°44'3 9.4
2017-Oct-05 04:00N 37°04' W 009°43'5 9.3
2017-Oct-05 03:30N 37°09' W 009°42'510.7
2017-Oct-05 03:00N 37°14' W 009°41'510.5
2017-Oct-05 02:30N 37°19' W 009°40'510.5
2017-Oct-05 02:00N 37°25' W 009°39'611.2
2017-Oct-05 01:30N 37°30' W 009°38'611.2
2017-Oct-05 01:00N 37°36' W 009°37'511.0
2017-Oct-05 00:30N 37°41' W 009°36'511.0
2017-Oct-05 00:00N 37°46' W 009°34'611.2
2017-Oct-04 23:30N 37°52' W 009°33'611.2
2017-Oct-04 23:00N 37°57' W 009°32'611.2
2017-Oct-04 22:30N 38°03' W 009°31'611.2
2017-Oct-04 22:00N 38°08' W 009°30'611.3
2017-Oct-04 21:30N 38°14' W 009°29'611.0
2017-Oct-04 21:00N 38°19' W 009°27'611.1
2017-Oct-04 20:30N 38°25' W 009°26'611.4
2017-Oct-04 20:00N 38°31' W 009°25'611.2
2017-Oct-04 19:30N 38°36' W 009°24'612.4
2017-Oct-04 19:00N 38°40' W 009°18'612.2
2017-Oct-04 18:30N 38°41' W 009°10'4 8.0
2017-Oct-04 18:00N 38°44' W 009°06'0 0.0
2017-Oct-04 17:30N 38°44' W 009°06'0 0.0
2017-Oct-04 17:00N 38°44' W 009°06'0 0.0
2017-Oct-04 16:30N 38°44' W 009°06'0 0.0
2017-Oct-04 15:59N 38°44' W 009°06'0 0.0
2017-Oct-04 15:30N 38°44' W 009°06'0 0.0
2017-Oct-04 15:00N 38°44' W 009°06'0 0.0
2017-Oct-04 14:30N 38°44' W 009°06'0 0.0
2017-Oct-04 13:59N 38°44' W 009°06'0 0.0
2017-Oct-04 13:30N 38°44' W 009°06'0 0.0
2017-Oct-04 13:00N 38°44' W 009°06'0 0.0
2017-Oct-04 12:29N 38°44' W 009°06'0 0.0
2017-Oct-04 12:00N 38°44' W 009°06'0 0.0
2017-Oct-04 11:30N 38°44' W 009°06'0 0.0
2017-Oct-04 10:59N 38°44' W 009°06'0 0.0
2017-Oct-04 10:30N 38°44' W 009°06'0 0.0
2017-Oct-04 10:01N 38°44' W 009°06'0 0.0
2017-Oct-04 09:30N 38°44' W 009°06'0 0.0
2017-Oct-04 09:00N 38°44' W 009°06'0 0.0
2017-Oct-04 08:30N 38°44' W 009°06'0 0.0
2017-Oct-04 08:00N 38°44' W 009°06'0 0.0
2017-Oct-04 07:30N 38°44' W 009°06'0 0.0
2017-Oct-04 07:00N 38°44' W 009°06'0 0.0
2017-Oct-04 06:30N 38°44' W 009°06'0 0.0
2017-Oct-04 06:00N 38°44' W 009°06'0 0.0
2017-Oct-04 05:30N 38°44' W 009°06'0 0.0
2017-Oct-04 05:00N 38°44' W 009°06'0 0.0
2017-Oct-04 04:30N 38°44' W 009°06'0 0.0
2017-Oct-04 04:00N 38°44' W 009°06'0 0.0
2017-Oct-04 03:30N 38°44' W 009°06'0 0.0
2017-Oct-04 03:00N 38°44' W 009°06'0 0.0
2017-Oct-04 02:30N 38°44' W 009°06'1 1.7
2017-Oct-04 02:00N 38°43' W 009°07'5 9.9
2017-Oct-04 01:30N 38°41' W 009°13'5 9.6
2017-Oct-04 01:00N 38°40' W 009°18'510.8
2017-Oct-04 00:30N 38°36' W 009°24'510.2
2017-Oct-04 00:00N 38°31' W 009°24'510.8
2017-Oct-03 23:30N 38°26' W 009°24'611.3
2017-Oct-03 23:00N 38°20' W 009°23'611.2
2017-Oct-03 22:30N 38°15' W 009°23'611.0
2017-Oct-03 22:00N 38°09' W 009°23'510.9
2017-Oct-03 21:30N 38°04' W 009°23'  
Track history (hours):
 
Tides and Currents Weather Stations Pressure Air Temp Water Temp Dewpoint Dewpoint Depression Visibility Wind Speed Wind Dir Waves Ship Positions

Manuela E

Last reported at 2017-Oct-13 21:02 UTC. Time now 2017-Nov-18 06:48 UTC.
Position N 40°09' W 008°51'.
Warning: this ship's position is 35 days out of date.

Length 100 m; draft 6.2 m.

Type: Cargo ship. MMSI: 225365000.

Date/timePositionNaut miles runAvg speedWind from/ knotsBaromVisibWave heightAir tempDewpointWater temp
2017-Oct-13 21:02N 40°09' W 008°51'0 0.0
2017-Oct-13 20:38N 40°09' W 008°51'5 0.2
2017-Oct-12 18:22N 40°06' W 008°56'410.9
2017-Oct-12 18:00N 40°03' W 008°60'611.1
2017-Oct-12 17:26N 39°59' W 009°06'3111.2
2017-Oct-12 14:42N 39°37' W 009°34'312.0
2017-Oct-12 14:29N 39°35' W 009°36'511.5
2017-Oct-12 14:00N 39°31' W 009°41'610.6
2017-Oct-12 13:27N 39°26' W 009°44'510.9
2017-Oct-12 13:00N 39°21' W 009°45'510.5
2017-Oct-12 12:30N 39°16' W 009°46'510.7
2017-Oct-12 12:00N 39°11' W 009°47'510.8
2017-Oct-12 11:30N 39°05' W 009°48'510.6
2017-Oct-12 11:00N 38°60' W 009°49'611.1
2017-Oct-12 10:30N 38°54' W 009°50'510.8
2017-Oct-12 10:00N 38°49' W 009°50'611.0
2017-Oct-12 09:30N 38°44' W 009°50'611.3
2017-Oct-12 09:00N 38°38' W 009°50'511.0
2017-Oct-12 08:31N 38°32' W 009°49'610.9
2017-Oct-12 08:00N 38°27' W 009°49'710.9
2017-Oct-12 07:22N 38°20' W 009°49'410.9
2017-Oct-12 06:59N 38°16' W 009°49'511.2
2017-Oct-12 06:31N 38°11' W 009°49'611.4
2017-Oct-12 06:00N 38°05' W 009°49'511.2
2017-Oct-12 05:30N 37°59' W 009°49'811.4
2017-Oct-12 04:48N 37°51' W 009°48'311.2
2017-Oct-12 04:30N 37°48' W 009°48'611.5
2017-Oct-12 04:01N 37°42' W 009°48'611.6
2017-Oct-12 03:30N 37°36' W 009°48'611.8
2017-Oct-12 03:00N 37°30' W 009°48'3811.3
2017-Oct-11 23:37N 36°52' W 009°47'310.9
2017-Oct-11 23:21N 36°49' W 009°47'411.1
2017-Oct-11 23:00N 36°45' W 009°47'510.9
2017-Oct-11 22:30N 36°40' W 009°47'710.9
2017-Oct-11 21:54N 36°33' W 009°46'511.1
2017-Oct-11 21:29N 36°28' W 009°46'4111.1
2017-Oct-11 17:46N 35°47' W 009°42'1010.5
2017-Oct-11 16:51N 35°38' W 009°41'  
2017-Oct-08 01:43N 33°36' W 007°37'0 0.0
2017-Oct-06 18:22N 33°36' W 007°37'10 0.7
2017-Oct-06 04:37N 33°46' W 007°36'1 8.5
2017-Oct-06 04:29N 33°47' W 007°37'4 9.1
2017-Oct-06 04:00N 33°50' W 007°40'141 9.3
2017-Oct-05 12:48N 35°52' W 009°07'5 8.6
2017-Oct-05 12:15N 35°56' W 009°10'2 8.6
2017-Oct-05 11:58N 35°58' W 009°12'37 9.2
2017-Oct-05 07:58N 36°30' W 009°35'5 9.5
2017-Oct-05 07:24N 36°34' W 009°39'4 9.3
2017-Oct-05 07:00N 36°37' W 009°41'19 9.0
2017-Oct-05 04:54N 36°56' W 009°45'6 9.4
2017-Oct-05 04:17N 37°02' W 009°44'3 9.4
2017-Oct-05 04:00N 37°04' W 009°43'5 9.3
2017-Oct-05 03:30N 37°09' W 009°42'510.7
2017-Oct-05 03:00N 37°14' W 009°41'510.5
2017-Oct-05 02:30N 37°19' W 009°40'510.5
2017-Oct-05 02:00N 37°25' W 009°39'611.2
2017-Oct-05 01:30N 37°30' W 009°38'611.2
2017-Oct-05 01:00N 37°36' W 009°37'511.0
2017-Oct-05 00:30N 37°41' W 009°36'511.0
2017-Oct-05 00:00N 37°46' W 009°34'611.2
2017-Oct-04 23:30N 37°52' W 009°33'611.2
2017-Oct-04 23:00N 37°57' W 009°32'611.2
2017-Oct-04 22:30N 38°03' W 009°31'611.2
2017-Oct-04 22:00N 38°08' W 009°30'611.3
2017-Oct-04 21:30N 38°14' W 009°29'611.0
2017-Oct-04 21:00N 38°19' W 009°27'611.1
2017-Oct-04 20:30N 38°25' W 009°26'611.4
2017-Oct-04 20:00N 38°31' W 009°25'611.2
2017-Oct-04 19:30N 38°36' W 009°24'612.4
2017-Oct-04 19:00N 38°40' W 009°18'612.2
2017-Oct-04 18:30N 38°41' W 009°10'4 8.0
2017-Oct-04 18:00N 38°44' W 009°06'0 0.0
2017-Oct-04 17:30N 38°44' W 009°06'0 0.0
2017-Oct-04 17:00N 38°44' W 009°06'0 0.0
2017-Oct-04 16:30N 38°44' W 009°06'0 0.0
2017-Oct-04 15:59N 38°44' W 009°06'0 0.0
2017-Oct-04 15:30N 38°44' W 009°06'0 0.0
2017-Oct-04 15:00N 38°44' W 009°06'0 0.0
2017-Oct-04 14:30N 38°44' W 009°06'0 0.0
2017-Oct-04 13:59N 38°44' W 009°06'0 0.0
2017-Oct-04 13:30N 38°44' W 009°06'0 0.0
2017-Oct-04 13:00N 38°44' W 009°06'0 0.0
2017-Oct-04 12:29N 38°44' W 009°06'0 0.0
2017-Oct-04 12:00N 38°44' W 009°06'0 0.0
2017-Oct-04 11:30N 38°44' W 009°06'0 0.0
2017-Oct-04 10:59N 38°44' W 009°06'0 0.0
2017-Oct-04 10:30N 38°44' W 009°06'0 0.0
2017-Oct-04 10:01N 38°44' W 009°06'0 0.0
2017-Oct-04 09:30N 38°44' W 009°06'0 0.0
2017-Oct-04 09:00N 38°44' W 009°06'0 0.0
2017-Oct-04 08:30N 38°44' W 009°06'0 0.0
2017-Oct-04 08:00N 38°44' W 009°06'0 0.0
2017-Oct-04 07:30N 38°44' W 009°06'0 0.0
2017-Oct-04 07:00N 38°44' W 009°06'0 0.0
2017-Oct-04 06:30N 38°44' W 009°06'0 0.0
2017-Oct-04 06:00N 38°44' W 009°06'0 0.0
2017-Oct-04 05:30N 38°44' W 009°06'0 0.0
2017-Oct-04 05:00N 38°44' W 009°06'0 0.0
2017-Oct-04 04:30N 38°44' W 009°06'0 0.0
2017-Oct-04 04:00N 38°44' W 009°06'0 0.0
2017-Oct-04 03:30N 38°44' W 009°06'0 0.0
2017-Oct-04 03:00N 38°44' W 009°06'0 0.0
2017-Oct-04 02:30N 38°44' W 009°06'1 1.7
2017-Oct-04 02:00N 38°43' W 009°07'5 9.9
2017-Oct-04 01:30N 38°41' W 009°13'5 9.6
2017-Oct-04 01:00N 38°40' W 009°18'510.8
2017-Oct-04 00:30N 38°36' W 009°24'510.2
2017-Oct-04 00:00N 38°31' W 009°24'510.8
2017-Oct-03 23:30N 38°26' W 009°24'611.3
2017-Oct-03 23:00N 38°20' W 009°23'611.2
2017-Oct-03 22:30N 38°15' W 009°23'611.0
2017-Oct-03 22:00N 38°09' W 009°23'510.9
2017-Oct-03 21:30N 38°04' W 009°23'  

Dump ship's entire track history